BMI13Y EGCC-LEMG
Flight info
| Callsign | BMI13Y |
|---|---|
| Flight time | 2h 36m |
| Altitude | 23000 |
| Route | KUXEM P17 BEPHE/N0425F340 DCT OSSEP DCT ELNIF DCT ZESPE DCT KLAKI DCT SALCO/N0424F330 DCT NOVAN/N0426F350 DCT DELOG DCT CRISA N864 VULPE |
| Aircraft | B733/M-SDE2E3FHIRW/S |
Departure
| Time | 2026-05-07 14:43 |
|---|---|
| Airport | Manchester Airport (EGCC) |
Arrival
| Time | 2026-05-07 17:19 |
|---|---|
| Airport | Málaga-Costa del Sol Airport (LEMG) |
| Time | Latitude | Longitude | Altitude | Speed | Heading |
|---|---|---|---|---|---|
| 2026-05-07 13:54 | 53.36040 | -2.26890 | 257 ft | 0 kts | 315° |
| 2026-05-07 13:55 | 53.36035 | -2.26883 | 257 ft | 0 kts | 315° |
| 2026-05-07 14:26 | 53.36035 | -2.26882 | 257 ft | 0 kts | 315° |
| 2026-05-07 14:26 | 53.36026 | -2.26866 | 257 ft | 2 kts | 315° |
| 2026-05-07 14:26 | 53.36015 | -2.26848 | 257 ft | 2 kts | 315° |
| 2026-05-07 14:26 | 53.36004 | -2.26830 | 257 ft | 2 kts | 301° |
| 2026-05-07 14:27 | 53.36001 | -2.26806 | 257 ft | 2 kts | 258° |
| 2026-05-07 14:27 | 53.36008 | -2.26784 | 257 ft | 2 kts | 224° |
| 2026-05-07 14:27 | 53.36015 | -2.26772 | 257 ft | 1 kts | 232° |
| 2026-05-07 14:27 | 53.36016 | -2.26771 | 257 ft | 0 kts | 232° |
| 2026-05-07 14:31 | 53.36014 | -2.26775 | 257 ft | 1 kts | 232° |
| 2026-05-07 14:32 | 53.36000 | -2.26804 | 257 ft | 5 kts | 231° |
| 2026-05-07 14:32 | 53.35951 | -2.26841 | 257 ft | 10 kts | 168° |
| 2026-05-07 14:32 | 53.35890 | -2.26863 | 257 ft | 10 kts | 232° |
| 2026-05-07 14:32 | 53.35844 | -2.26960 | 257 ft | 10 kts | 236° |
| 2026-05-07 14:33 | 53.35807 | -2.27068 | 257 ft | 10 kts | 232° |
| 2026-05-07 14:33 | 53.35765 | -2.27153 | 257 ft | 6 kts | 230° |
| 2026-05-07 14:33 | 53.35752 | -2.27179 | 257 ft | 0 kts | 231° |
| 2026-05-07 14:33 | 53.35751 | -2.27181 | 257 ft | 0 kts | 231° |
| 2026-05-07 14:34 | 53.35746 | -2.27190 | 257 ft | 1 kts | 232° |
| 2026-05-07 14:34 | 53.35735 | -2.27215 | 257 ft | 3 kts | 233° |
| 2026-05-07 14:34 | 53.35715 | -2.27259 | 257 ft | 5 kts | 230° |
| 2026-05-07 14:34 | 53.35683 | -2.27322 | 257 ft | 8 kts | 232° |
| 2026-05-07 14:35 | 53.35654 | -2.27385 | 257 ft | 4 kts | 231° |
| 2026-05-07 14:35 | 53.35645 | -2.27404 | 257 ft | 0 kts | 230° |
| 2026-05-07 14:35 | 53.35644 | -2.27404 | 257 ft | 0 kts | 230° |
| 2026-05-07 14:35 | 53.35644 | -2.27405 | 257 ft | 0 kts | 231° |
| 2026-05-07 14:36 | 53.35643 | -2.27406 | 257 ft | 0 kts | 230° |
| 2026-05-07 14:36 | 53.35643 | -2.27407 | 257 ft | 0 kts | 230° |
| 2026-05-07 14:36 | 53.35634 | -2.27426 | 257 ft | 3 kts | 231° |
| 2026-05-07 14:37 | 53.35599 | -2.27470 | 257 ft | 8 kts | 190° |
| 2026-05-07 14:37 | 53.35496 | -2.27356 | 257 ft | 9 kts | 140° |
| 2026-05-07 14:37 | 53.35445 | -2.27286 | 257 ft | 9 kts | 142° |
| 2026-05-07 14:38 | 53.35393 | -2.27217 | 257 ft | 9 kts | 144° |
| 2026-05-07 14:38 | 53.35328 | -2.27194 | 257 ft | 10 kts | 186° |
| 2026-05-07 14:38 | 53.35267 | -2.27251 | 257 ft | 10 kts | 230° |
| 2026-05-07 14:38 | 53.35221 | -2.27349 | 257 ft | 10 kts | 229° |
| 2026-05-07 14:39 | 53.35173 | -2.27445 | 257 ft | 10 kts | 231° |
| 2026-05-07 14:39 | 53.35118 | -2.27520 | 257 ft | 10 kts | 184° |
| 2026-05-07 14:39 | 53.35047 | -2.27492 | 257 ft | 10 kts | 177° |
| 2026-05-07 14:39 | 53.34989 | -2.27468 | 257 ft | 8 kts | 167° |
| 2026-05-07 14:40 | 53.34940 | -2.27468 | 257 ft | 4 kts | 215° |
| 2026-05-07 14:40 | 53.34927 | -2.27493 | 257 ft | 0 kts | 231° |
| 2026-05-07 14:40 | 53.34926 | -2.27494 | 257 ft | 0 kts | 231° |
| 2026-05-07 14:41 | 53.34926 | -2.27495 | 257 ft | 0 kts | 231° |
| 2026-05-07 14:41 | 53.34925 | -2.27495 | 257 ft | 0 kts | 231° |
| 2026-05-07 14:41 | 53.34922 | -2.27502 | 257 ft | 2 kts | 230° |
| 2026-05-07 14:41 | 53.34835 | -2.27677 | 257 ft | 46 kts | 231° |
| 2026-05-07 14:42 | 53.34517 | -2.28334 | 257 ft | 98 kts | 231° |
| 2026-05-07 14:42 | 53.33991 | -2.29425 | 257 ft | 141 kts | 232° |
| 2026-05-07 14:42 | 53.33314 | -2.30829 | 364 ft | 161 kts | 231° |
| 2026-05-07 14:42 | 53.32636 | -2.32310 | 687 ft | 165 kts | 231° |
| 2026-05-07 14:43 | 53.31928 | -2.33873 | 958 ft | 174 kts | 232° |
| 2026-05-07 14:43 | 53.31329 | -2.35667 | 1313 ft | 178 kts | 254° |
| 2026-05-07 14:43 | 53.31315 | -2.37803 | 1498 ft | 195 kts | 280° |
| 2026-05-07 14:43 | 53.31736 | -2.39982 | 1804 ft | 196 kts | 287° |
| 2026-05-07 14:44 | 53.32100 | -2.42199 | 1987 ft | 205 kts | 270° |
| 2026-05-07 14:44 | 53.31914 | -2.44631 | 2198 ft | 219 kts | 256° |
| 2026-05-07 14:44 | 53.31585 | -2.47190 | 2570 ft | 233 kts | 255° |
| 2026-05-07 14:44 | 53.31182 | -2.49949 | 2968 ft | 251 kts | 253° |
| 2026-05-07 14:45 | 53.30730 | -2.52799 | 3583 ft | 259 kts | 253° |
| 2026-05-07 14:45 | 53.30249 | -2.55677 | 4310 ft | 262 kts | 252° |
| 2026-05-07 14:45 | 53.29723 | -2.58603 | 4743 ft | 266 kts | 247° |
| 2026-05-07 14:45 | 53.28965 | -2.61438 | 4951 ft | 268 kts | 243° |
| 2026-05-07 14:46 | 53.28131 | -2.64188 | 5703 ft | 266 kts | 232° |
| 2026-05-07 14:46 | 53.26798 | -2.66208 | 6491 ft | 263 kts | 213° |
| 2026-05-07 14:46 | 53.25302 | -2.67946 | 7221 ft | 264 kts | 214° |
| 2026-05-07 14:46 | 53.23797 | -2.69699 | 7961 ft | 265 kts | 214° |
| 2026-05-07 14:47 | 53.22291 | -2.71449 | 8642 ft | 268 kts | 214° |
| 2026-05-07 14:47 | 53.20766 | -2.73217 | 9318 ft | 270 kts | 214° |
| 2026-05-07 14:47 | 53.19224 | -2.75000 | 9982 ft | 273 kts | 213° |
| 2026-05-07 14:47 | 53.17632 | -2.76838 | 10303 ft | 289 kts | 213° |
| 2026-05-07 14:48 | 53.15914 | -2.78819 | 10368 ft | 313 kts | 213° |
| 2026-05-07 14:48 | 53.14094 | -2.80915 | 10743 ft | 325 kts | 213° |
| 2026-05-07 14:48 | 53.12210 | -2.83083 | 11360 ft | 330 kts | 213° |
| 2026-05-07 14:48 | 53.10330 | -2.85244 | 12038 ft | 333 kts | 213° |
| 2026-05-07 14:49 | 53.08309 | -2.87084 | 12639 ft | 335 kts | 198° |
| 2026-05-07 14:49 | 53.05997 | -2.87718 | 13276 ft | 338 kts | 179° |
| 2026-05-07 14:49 | 53.03661 | -2.87238 | 13886 ft | 342 kts | 171° |
| 2026-05-07 14:49 | 53.01318 | -2.86580 | 14474 ft | 346 kts | 171° |
| 2026-05-07 14:50 | 52.98936 | -2.85925 | 15081 ft | 350 kts | 172° |
| 2026-05-07 14:50 | 52.96517 | -2.85265 | 15669 ft | 354 kts | 172° |
| 2026-05-07 14:50 | 52.94091 | -2.84605 | 16241 ft | 358 kts | 172° |
| 2026-05-07 14:50 | 52.91625 | -2.83937 | 16824 ft | 361 kts | 172° |
| 2026-05-07 14:51 | 52.89155 | -2.83270 | 17354 ft | 366 kts | 172° |
| 2026-05-07 14:51 | 52.86610 | -2.82585 | 17876 ft | 370 kts | 172° |
| 2026-05-07 14:51 | 52.84055 | -2.81898 | 18460 ft | 372 kts | 172° |
| 2026-05-07 14:51 | 52.81495 | -2.81209 | 18995 ft | 376 kts | 172° |
| 2026-05-07 14:52 | 52.78930 | -2.80520 | 19528 ft | 379 kts | 172° |
| 2026-05-07 14:52 | 52.76331 | -2.79822 | 20054 ft | 382 kts | 172° |
| 2026-05-07 14:52 | 52.73690 | -2.79114 | 20582 ft | 384 kts | 172° |
| 2026-05-07 14:52 | 52.71055 | -2.78408 | 21111 ft | 387 kts | 172° |
| 2026-05-07 14:53 | 52.68412 | -2.77701 | 21615 ft | 389 kts | 172° |
| 2026-05-07 14:53 | 52.65725 | -2.76983 | 22110 ft | 392 kts | 172° |
| 2026-05-07 14:53 | 52.63039 | -2.76266 | 22585 ft | 395 kts | 172° |
| 2026-05-07 14:53 | 52.60316 | -2.75805 | 23028 ft | 397 kts | 182° |
| 2026-05-07 14:54 | 52.57543 | -2.76034 | 23485 ft | 399 kts | 184° |
| 2026-05-07 14:54 | 52.54773 | -2.76315 | 23939 ft | 402 kts | 184° |
| 2026-05-07 14:54 | 52.51986 | -2.76576 | 24416 ft | 404 kts | 184° |
| 2026-05-07 14:54 | 52.49206 | -2.76826 | 24842 ft | 407 kts | 184° |
| 2026-05-07 14:55 | 52.46362 | -2.77075 | 25283 ft | 409 kts | 184° |
| 2026-05-07 14:55 | 52.43537 | -2.77321 | 25713 ft | 412 kts | 184° |
| 2026-05-07 14:55 | 52.40652 | -2.77572 | 26118 ft | 415 kts | 184° |
| 2026-05-07 14:55 | 52.37793 | -2.77819 | 26534 ft | 417 kts | 184° |
| 2026-05-07 14:56 | 52.34876 | -2.78071 | 26944 ft | 420 kts | 183° |
| 2026-05-07 14:56 | 52.31979 | -2.78321 | 27352 ft | 422 kts | 183° |
| 2026-05-07 14:56 | 52.29019 | -2.78576 | 27721 ft | 425 kts | 184° |
| 2026-05-07 14:56 | 52.26100 | -2.78827 | 28200 ft | 425 kts | 184° |
| 2026-05-07 14:57 | 52.23164 | -2.79079 | 28774 ft | 422 kts | 183° |
| 2026-05-07 14:57 | 52.20240 | -2.79330 | 29352 ft | 419 kts | 183° |
| 2026-05-07 14:57 | 52.17336 | -2.79579 | 29853 ft | 418 kts | 183° |
| 2026-05-07 14:57 | 52.14455 | -2.79825 | 30303 ft | 417 kts | 183° |
| 2026-05-07 14:58 | 52.11548 | -2.80074 | 30726 ft | 417 kts | 183° |
| 2026-05-07 14:58 | 52.08678 | -2.80319 | 31140 ft | 417 kts | 183° |
| 2026-05-07 14:58 | 52.05786 | -2.80565 | 31538 ft | 416 kts | 183° |
| 2026-05-07 14:58 | 52.02903 | -2.80807 | 31895 ft | 416 kts | 183° |
| 2026-05-07 14:59 | 52.00000 | -2.81052 | 32229 ft | 416 kts | 183° |
| 2026-05-07 14:59 | 51.97123 | -2.81295 | 32575 ft | 416 kts | 183° |
| 2026-05-07 14:59 | 51.94255 | -2.81537 | 32920 ft | 415 kts | 183° |
| 2026-05-07 14:59 | 51.91369 | -2.81782 | 33261 ft | 415 kts | 183° |
| 2026-05-07 15:00 | 51.88530 | -2.82022 | 33545 ft | 416 kts | 183° |
| 2026-05-07 15:00 | 51.85616 | -2.82280 | 33813 ft | 416 kts | 185° |
| 2026-05-07 15:00 | 51.82760 | -2.82805 | 34180 ft | 414 kts | 188° |
| 2026-05-07 15:00 | 51.79928 | -2.83436 | 34551 ft | 412 kts | 188° |
| 2026-05-07 15:01 | 51.77108 | -2.84062 | 34869 ft | 411 kts | 188° |
| 2026-05-07 15:01 | 51.74265 | -2.84682 | 35005 ft | 413 kts | 188° |
| 2026-05-07 15:01 | 51.68592 | -2.85900 | 35010 ft | 412 kts | 188° |
| 2026-05-07 15:02 | 51.62946 | -2.87106 | 34991 ft | 410 kts | 188° |
| 2026-05-07 15:02 | 51.57295 | -2.88310 | 35002 ft | 410 kts | 188° |
| 2026-05-07 15:03 | 51.51650 | -2.89504 | 35003 ft | 410 kts | 188° |
| 2026-05-07 15:03 | 51.46023 | -2.90694 | 35009 ft | 410 kts | 188° |
| 2026-05-07 15:04 | 51.40370 | -2.91888 | 35013 ft | 410 kts | 188° |
| 2026-05-07 15:04 | 51.34707 | -2.93082 | 35014 ft | 410 kts | 188° |
| 2026-05-07 15:05 | 51.29072 | -2.94267 | 35014 ft | 410 kts | 189° |
| 2026-05-07 15:05 | 51.23446 | -2.95447 | 35016 ft | 410 kts | 189° |
| 2026-05-07 15:06 | 51.17805 | -2.96628 | 35004 ft | 410 kts | 189° |
| 2026-05-07 15:06 | 51.12143 | -2.97810 | 35006 ft | 410 kts | 189° |
| 2026-05-07 15:07 | 51.06508 | -2.98984 | 35011 ft | 410 kts | 189° |
| 2026-05-07 15:07 | 51.00861 | -3.00157 | 35012 ft | 410 kts | 189° |
| 2026-05-07 15:08 | 50.95226 | -3.01325 | 35016 ft | 410 kts | 189° |
| 2026-05-07 15:08 | 50.89587 | -3.02490 | 35000 ft | 409 kts | 189° |
| 2026-05-07 15:09 | 50.83916 | -3.03654 | 34997 ft | 409 kts | 189° |
| 2026-05-07 15:09 | 50.78276 | -3.04813 | 35026 ft | 410 kts | 189° |
| 2026-05-07 15:10 | 50.72629 | -3.05971 | 35022 ft | 410 kts | 189° |
| 2026-05-07 15:10 | 50.66975 | -3.07129 | 35023 ft | 409 kts | 189° |
| 2026-05-07 15:11 | 50.61333 | -3.08281 | 35017 ft | 409 kts | 189° |
| 2026-05-07 15:11 | 50.55712 | -3.09426 | 35018 ft | 409 kts | 189° |
| 2026-05-07 15:12 | 50.50042 | -3.10578 | 35018 ft | 409 kts | 189° |
| 2026-05-07 15:12 | 50.44430 | -3.11716 | 35011 ft | 409 kts | 189° |
| 2026-05-07 15:13 | 50.38775 | -3.12860 | 35007 ft | 409 kts | 189° |
| 2026-05-07 15:13 | 50.36028 | -3.13746 | 34995 ft | 405 kts | 201° |
| 2026-05-07 15:13 | 50.33402 | -3.15381 | 35015 ft | 406 kts | 204° |
| 2026-05-07 15:14 | 50.28181 | -3.18817 | 35014 ft | 406 kts | 204° |
| 2026-05-07 15:14 | 50.22974 | -3.22142 | 35006 ft | 405 kts | 203° |
| 2026-05-07 15:15 | 50.17758 | -3.25442 | 35011 ft | 405 kts | 203° |
| 2026-05-07 15:15 | 50.12513 | -3.28750 | 35008 ft | 406 kts | 203° |
| 2026-05-07 15:16 | 50.07289 | -3.32037 | 35006 ft | 406 kts | 203° |
| 2026-05-07 15:16 | 50.02052 | -3.35325 | 35012 ft | 406 kts | 203° |
| 2026-05-07 15:17 | 49.96820 | -3.38601 | 35006 ft | 406 kts | 203° |
| 2026-05-07 15:17 | 49.91588 | -3.41869 | 35005 ft | 405 kts | 203° |
| 2026-05-07 15:18 | 49.86319 | -3.45144 | 34989 ft | 405 kts | 203° |
| 2026-05-07 15:18 | 49.81025 | -3.48427 | 35002 ft | 406 kts | 203° |
| 2026-05-07 15:19 | 49.75773 | -3.51683 | 35001 ft | 405 kts | 203° |
| 2026-05-07 15:19 | 49.73078 | -3.53045 | 34969 ft | 406 kts | 188° |
| 2026-05-07 15:19 | 49.70257 | -3.53320 | 35000 ft | 408 kts | 182° |
| 2026-05-07 15:20 | 49.64574 | -3.53466 | 35000 ft | 409 kts | 183° |
| 2026-05-07 15:20 | 49.58908 | -3.53728 | 34992 ft | 408 kts | 184° |
| 2026-05-07 15:21 | 49.53237 | -3.54024 | 34993 ft | 408 kts | 184° |
| 2026-05-07 15:21 | 49.47538 | -3.54324 | 34988 ft | 408 kts | 184° |
| 2026-05-07 15:22 | 49.41889 | -3.54621 | 34991 ft | 408 kts | 184° |
| 2026-05-07 15:22 | 49.36226 | -3.54918 | 34989 ft | 408 kts | 184° |
| 2026-05-07 15:23 | 49.30567 | -3.55214 | 34984 ft | 408 kts | 184° |
| 2026-05-07 15:23 | 49.24916 | -3.55510 | 34981 ft | 407 kts | 184° |
| 2026-05-07 15:24 | 49.19239 | -3.55806 | 34978 ft | 407 kts | 184° |
| 2026-05-07 15:24 | 49.13580 | -3.56100 | 34978 ft | 407 kts | 184° |
| 2026-05-07 15:25 | 49.07915 | -3.56394 | 34977 ft | 407 kts | 184° |
| 2026-05-07 15:25 | 49.02278 | -3.56686 | 34978 ft | 407 kts | 184° |
| 2026-05-07 15:26 | 48.96606 | -3.56979 | 34977 ft | 407 kts | 184° |
| 2026-05-07 15:26 | 48.90912 | -3.57272 | 34971 ft | 407 kts | 184° |
| 2026-05-07 15:27 | 48.85241 | -3.57562 | 34968 ft | 406 kts | 184° |
| 2026-05-07 15:27 | 48.79569 | -3.57852 | 34973 ft | 407 kts | 184° |
| 2026-05-07 15:28 | 48.73902 | -3.58142 | 34978 ft | 407 kts | 184° |
| 2026-05-07 15:28 | 48.68254 | -3.58430 | 34969 ft | 407 kts | 184° |
| 2026-05-07 15:29 | 48.62582 | -3.58719 | 34969 ft | 406 kts | 184° |
| 2026-05-07 15:29 | 48.56905 | -3.59008 | 34966 ft | 406 kts | 184° |
| 2026-05-07 15:30 | 48.51261 | -3.59294 | 34963 ft | 406 kts | 184° |
| 2026-05-07 15:30 | 48.45565 | -3.59583 | 34960 ft | 406 kts | 184° |
| 2026-05-07 15:31 | 48.39928 | -3.59867 | 34960 ft | 406 kts | 184° |
| 2026-05-07 15:31 | 48.34262 | -3.60153 | 34961 ft | 406 kts | 184° |
| 2026-05-07 15:32 | 48.28636 | -3.60436 | 34957 ft | 406 kts | 184° |
| 2026-05-07 15:32 | 48.22996 | -3.60719 | 34958 ft | 406 kts | 184° |
| 2026-05-07 15:33 | 48.17328 | -3.61002 | 34958 ft | 406 kts | 184° |
| 2026-05-07 15:33 | 48.11720 | -3.61282 | 34955 ft | 405 kts | 184° |
| 2026-05-07 15:34 | 48.06067 | -3.61564 | 34955 ft | 405 kts | 184° |
| 2026-05-07 15:34 | 48.00411 | -3.61845 | 34953 ft | 405 kts | 184° |
| 2026-05-07 15:35 | 47.94780 | -3.62125 | 34951 ft | 405 kts | 184° |
| 2026-05-07 15:35 | 47.89155 | -3.62403 | 34945 ft | 405 kts | 184° |
| 2026-05-07 15:36 | 47.83528 | -3.62679 | 34955 ft | 404 kts | 184° |
| 2026-05-07 15:36 | 47.77894 | -3.62956 | 34963 ft | 405 kts | 184° |
| 2026-05-07 15:37 | 47.72288 | -3.63232 | 34964 ft | 404 kts | 184° |
| 2026-05-07 15:37 | 47.66639 | -3.63509 | 34958 ft | 404 kts | 184° |
| 2026-05-07 15:38 | 47.61024 | -3.63784 | 34957 ft | 404 kts | 184° |
| 2026-05-07 15:38 | 47.55409 | -3.64059 | 34959 ft | 404 kts | 184° |
| 2026-05-07 15:39 | 47.49831 | -3.64331 | 34954 ft | 404 kts | 184° |
| 2026-05-07 15:39 | 47.44195 | -3.64605 | 34958 ft | 403 kts | 184° |
| 2026-05-07 15:40 | 47.38617 | -3.64876 | 34962 ft | 403 kts | 184° |
| 2026-05-07 15:40 | 47.32978 | -3.65159 | 34960 ft | 403 kts | 183° |
| 2026-05-07 15:41 | 47.27272 | -3.65451 | 34952 ft | 403 kts | 183° |
| 2026-05-07 15:41 | 47.21618 | -3.65727 | 34962 ft | 403 kts | 183° |
| 2026-05-07 15:42 | 47.16000 | -3.65998 | 34960 ft | 403 kts | 183° |
| 2026-05-07 15:42 | 47.10366 | -3.66273 | 34957 ft | 402 kts | 182° |
| 2026-05-07 15:43 | 47.04757 | -3.66542 | 34959 ft | 403 kts | 182° |
| 2026-05-07 15:43 | 46.99141 | -3.66813 | 34977 ft | 403 kts | 182° |
| 2026-05-07 15:44 | 46.93527 | -3.67081 | 34957 ft | 402 kts | 182° |
| 2026-05-07 15:44 | 46.87878 | -3.67346 | 34935 ft | 404 kts | 182° |
| 2026-05-07 15:45 | 46.82267 | -3.67608 | 34956 ft | 402 kts | 182° |
| 2026-05-07 15:45 | 46.76709 | -3.67868 | 34957 ft | 401 kts | 183° |
| 2026-05-07 15:46 | 46.68336 | -3.68259 | 34964 ft | 401 kts | 183° |
| 2026-05-07 15:47 | 46.62762 | -3.68519 | 34964 ft | 400 kts | 183° |
| 2026-05-07 15:47 | 46.57190 | -3.68778 | 34957 ft | 400 kts | 183° |
| 2026-05-07 15:48 | 46.51640 | -3.69035 | 34956 ft | 400 kts | 183° |
| 2026-05-07 15:48 | 46.46074 | -3.69293 | 34962 ft | 399 kts | 183° |
| 2026-05-07 15:49 | 46.40538 | -3.69549 | 34960 ft | 399 kts | 183° |
| 2026-05-07 15:49 | 46.34980 | -3.69805 | 34922 ft | 399 kts | 183° |
| 2026-05-07 15:50 | 46.29375 | -3.70308 | 34953 ft | 404 kts | 187° |
| 2026-05-07 15:50 | 46.23793 | -3.71175 | 34965 ft | 406 kts | 187° |
| 2026-05-07 15:51 | 46.18169 | -3.72025 | 34962 ft | 406 kts | 187° |
| 2026-05-07 15:51 | 46.12531 | -3.72867 | 34960 ft | 405 kts | 187° |
| 2026-05-07 15:52 | 46.06914 | -3.73703 | 34952 ft | 406 kts | 187° |
| 2026-05-07 15:52 | 46.01283 | -3.74539 | 34955 ft | 406 kts | 187° |
| 2026-05-07 15:53 | 45.95658 | -3.75373 | 34963 ft | 406 kts | 187° |
| 2026-05-07 15:53 | 45.90041 | -3.76204 | 34951 ft | 406 kts | 187° |
| 2026-05-07 15:54 | 45.84390 | -3.77035 | 34957 ft | 406 kts | 187° |
| 2026-05-07 15:54 | 45.78766 | -3.77862 | 34956 ft | 407 kts | 187° |
| 2026-05-07 15:55 | 45.73121 | -3.78691 | 34941 ft | 406 kts | 187° |
| 2026-05-07 15:55 | 45.67475 | -3.79520 | 34934 ft | 407 kts | 187° |
| 2026-05-07 15:56 | 45.61841 | -3.80345 | 34937 ft | 407 kts | 187° |
| 2026-05-07 15:56 | 45.56234 | -3.81164 | 34937 ft | 406 kts | 187° |
| 2026-05-07 15:57 | 45.50557 | -3.81992 | 34934 ft | 407 kts | 187° |
| 2026-05-07 15:57 | 45.44942 | -3.82809 | 34934 ft | 408 kts | 187° |
| 2026-05-07 15:58 | 45.39276 | -3.83632 | 34929 ft | 407 kts | 187° |
| 2026-05-07 15:58 | 45.33648 | -3.84448 | 34927 ft | 408 kts | 188° |
| 2026-05-07 15:59 | 45.27990 | -3.85267 | 34925 ft | 408 kts | 188° |
| 2026-05-07 15:59 | 45.22318 | -3.86085 | 34927 ft | 408 kts | 188° |
| 2026-05-07 16:00 | 45.16651 | -3.86902 | 34927 ft | 408 kts | 188° |
| 2026-05-07 16:00 | 45.11018 | -3.87712 | 34927 ft | 408 kts | 188° |
| 2026-05-07 16:01 | 45.05347 | -3.88526 | 34926 ft | 408 kts | 188° |
| 2026-05-07 16:01 | 44.99643 | -3.89343 | 34921 ft | 409 kts | 188° |
| 2026-05-07 16:02 | 44.93987 | -3.90151 | 34921 ft | 409 kts | 188° |
| 2026-05-07 16:02 | 44.88308 | -3.90961 | 34887 ft | 410 kts | 188° |
| 2026-05-07 16:03 | 44.82601 | -3.91769 | 34914 ft | 410 kts | 188° |
| 2026-05-07 16:03 | 44.76870 | -3.92582 | 34912 ft | 411 kts | 188° |
| 2026-05-07 16:04 | 44.71151 | -3.93389 | 34910 ft | 410 kts | 188° |
| 2026-05-07 16:04 | 44.65445 | -3.94192 | 34909 ft | 411 kts | 188° |
| 2026-05-07 16:05 | 44.59791 | -3.94988 | 34908 ft | 410 kts | 188° |
| 2026-05-07 16:05 | 44.54074 | -3.95791 | 34905 ft | 412 kts | 188° |
| 2026-05-07 16:06 | 44.48403 | -3.96583 | 34901 ft | 412 kts | 188° |
| 2026-05-07 16:06 | 44.42690 | -3.97384 | 34897 ft | 413 kts | 188° |
| 2026-05-07 16:07 | 44.36986 | -3.98182 | 34895 ft | 413 kts | 188° |
| 2026-05-07 16:07 | 44.31276 | -3.98946 | 34893 ft | 413 kts | 187° |
| 2026-05-07 16:08 | 44.25539 | -3.99596 | 34892 ft | 413 kts | 187° |
| 2026-05-07 16:08 | 44.19780 | -4.00253 | 34890 ft | 414 kts | 187° |
| 2026-05-07 16:09 | 44.14054 | -4.00908 | 34886 ft | 415 kts | 187° |
| 2026-05-07 16:09 | 44.08300 | -4.01565 | 34881 ft | 411 kts | 187° |
| 2026-05-07 16:10 | 44.02615 | -4.02212 | 34860 ft | 405 kts | 186° |
| 2026-05-07 16:10 | 43.96983 | -4.02854 | 34868 ft | 404 kts | 186° |
| 2026-05-07 16:11 | 43.91362 | -4.03492 | 34882 ft | 405 kts | 186° |
| 2026-05-07 16:11 | 43.85741 | -4.04127 | 34926 ft | 405 kts | 186° |
| 2026-05-07 16:12 | 43.80150 | -4.04757 | 34941 ft | 404 kts | 186° |
| 2026-05-07 16:12 | 43.74574 | -4.05386 | 34908 ft | 401 kts | 186° |
| 2026-05-07 16:13 | 43.68986 | -4.06016 | 34904 ft | 403 kts | 186° |
| 2026-05-07 16:13 | 43.63401 | -4.06645 | 34911 ft | 403 kts | 186° |
| 2026-05-07 16:14 | 43.57794 | -4.07274 | 34900 ft | 403 kts | 186° |
| 2026-05-07 16:14 | 43.52194 | -4.07902 | 34900 ft | 404 kts | 186° |
| 2026-05-07 16:15 | 43.46557 | -4.08533 | 34896 ft | 404 kts | 186° |
| 2026-05-07 16:15 | 43.40975 | -4.09156 | 34896 ft | 404 kts | 186° |
| 2026-05-07 16:16 | 43.35328 | -4.09785 | 34895 ft | 404 kts | 186° |
| 2026-05-07 16:16 | 43.29713 | -4.10410 | 34890 ft | 405 kts | 187° |
| 2026-05-07 16:17 | 43.24030 | -4.11041 | 34896 ft | 405 kts | 187° |
| 2026-05-07 16:17 | 43.18353 | -4.11670 | 34902 ft | 405 kts | 186° |
| 2026-05-07 16:18 | 43.12692 | -4.12296 | 34891 ft | 405 kts | 186° |
| 2026-05-07 16:18 | 43.06901 | -4.12936 | 34855 ft | 411 kts | 187° |
| 2026-05-07 16:19 | 43.01055 | -4.13582 | 34860 ft | 421 kts | 188° |
| 2026-05-07 16:19 | 42.95188 | -4.14227 | 34898 ft | 424 kts | 188° |
| 2026-05-07 16:20 | 42.89310 | -4.14871 | 34875 ft | 422 kts | 188° |
| 2026-05-07 16:20 | 42.83452 | -4.15508 | 34922 ft | 421 kts | 188° |
| 2026-05-07 16:21 | 42.77655 | -4.16142 | 34939 ft | 418 kts | 187° |
| 2026-05-07 16:21 | 42.71842 | -4.16776 | 34891 ft | 416 kts | 187° |
| 2026-05-07 16:22 | 42.65963 | -4.17418 | 34894 ft | 418 kts | 187° |
| 2026-05-07 16:22 | 42.60019 | -4.18064 | 34896 ft | 419 kts | 187° |
| 2026-05-07 16:23 | 42.54180 | -4.18698 | 34894 ft | 418 kts | 187° |
| 2026-05-07 16:23 | 42.48369 | -4.19327 | 34884 ft | 419 kts | 188° |
| 2026-05-07 16:24 | 42.42531 | -4.19959 | 34895 ft | 420 kts | 187° |
| 2026-05-07 16:24 | 42.36723 | -4.20585 | 34886 ft | 419 kts | 188° |
| 2026-05-07 16:25 | 42.30846 | -4.21219 | 34881 ft | 420 kts | 187° |
| 2026-05-07 16:25 | 42.24914 | -4.21858 | 34889 ft | 421 kts | 188° |
| 2026-05-07 16:26 | 42.18953 | -4.22497 | 34889 ft | 422 kts | 188° |
| 2026-05-07 16:26 | 42.13102 | -4.23123 | 34891 ft | 421 kts | 188° |
| 2026-05-07 16:27 | 42.07270 | -4.23747 | 34874 ft | 421 kts | 188° |
| 2026-05-07 16:27 | 42.01388 | -4.24376 | 34889 ft | 423 kts | 188° |
| 2026-05-07 16:28 | 41.95538 | -4.24998 | 34900 ft | 422 kts | 188° |
| 2026-05-07 16:28 | 41.89664 | -4.25623 | 34927 ft | 422 kts | 187° |
| 2026-05-07 16:29 | 41.83799 | -4.26241 | 34900 ft | 418 kts | 187° |
| 2026-05-07 16:29 | 41.77912 | -4.26864 | 34809 ft | 421 kts | 189° |
| 2026-05-07 16:30 | 41.72015 | -4.27489 | 34737 ft | 428 kts | 190° |
| 2026-05-07 16:30 | 41.66043 | -4.28120 | 34904 ft | 432 kts | 190° |
| 2026-05-07 16:31 | 41.60023 | -4.28753 | 34925 ft | 431 kts | 190° |
| 2026-05-07 16:31 | 41.54053 | -4.29380 | 34906 ft | 430 kts | 190° |
| 2026-05-07 16:32 | 41.48069 | -4.30010 | 34914 ft | 432 kts | 191° |
| 2026-05-07 16:32 | 41.42075 | -4.30637 | 34908 ft | 431 kts | 191° |
| 2026-05-07 16:33 | 41.36082 | -4.31264 | 34904 ft | 432 kts | 191° |
| 2026-05-07 16:33 | 41.30116 | -4.31887 | 34918 ft | 432 kts | 191° |
| 2026-05-07 16:34 | 41.24116 | -4.32512 | 34910 ft | 430 kts | 191° |
| 2026-05-07 16:34 | 41.18124 | -4.33136 | 34919 ft | 431 kts | 191° |
| 2026-05-07 16:35 | 41.12103 | -4.33762 | 34912 ft | 432 kts | 191° |
| 2026-05-07 16:35 | 41.06099 | -4.34383 | 34914 ft | 432 kts | 192° |
| 2026-05-07 16:36 | 41.00088 | -4.35006 | 34914 ft | 433 kts | 192° |
| 2026-05-07 16:36 | 40.94075 | -4.35626 | 34907 ft | 433 kts | 192° |
| 2026-05-07 16:37 | 40.88041 | -4.36247 | 34881 ft | 434 kts | 192° |
| 2026-05-07 16:37 | 40.82021 | -4.36861 | 34876 ft | 432 kts | 191° |
| 2026-05-07 16:38 | 40.76014 | -4.37477 | 34872 ft | 430 kts | 190° |
| 2026-05-07 16:38 | 40.70044 | -4.38089 | 34896 ft | 431 kts | 190° |
| 2026-05-07 16:39 | 40.64056 | -4.38701 | 34915 ft | 430 kts | 191° |
| 2026-05-07 16:39 | 40.58036 | -4.39318 | 34916 ft | 435 kts | 192° |
| 2026-05-07 16:40 | 40.52035 | -4.39929 | 34904 ft | 433 kts | 193° |
| 2026-05-07 16:40 | 40.46001 | -4.40544 | 34915 ft | 434 kts | 192° |
| 2026-05-07 16:41 | 40.39973 | -4.41155 | 34908 ft | 432 kts | 193° |
| 2026-05-07 16:41 | 40.33959 | -4.41765 | 34899 ft | 432 kts | 193° |
| 2026-05-07 16:42 | 40.27921 | -4.42378 | 34893 ft | 434 kts | 193° |
| 2026-05-07 16:42 | 40.21895 | -4.42986 | 34892 ft | 434 kts | 193° |
| 2026-05-07 16:43 | 40.15885 | -4.43591 | 34876 ft | 432 kts | 193° |
| 2026-05-07 16:43 | 40.09864 | -4.44200 | 34875 ft | 435 kts | 193° |
| 2026-05-07 16:44 | 40.03850 | -4.44805 | 34892 ft | 435 kts | 193° |
| 2026-05-07 16:44 | 39.97825 | -4.45408 | 34864 ft | 433 kts | 193° |
| 2026-05-07 16:45 | 39.91779 | -4.46014 | 34867 ft | 432 kts | 193° |
| 2026-05-07 16:45 | 39.85711 | -4.46617 | 34866 ft | 434 kts | 192° |
| 2026-05-07 16:46 | 39.79674 | -4.47215 | 34897 ft | 433 kts | 192° |
| 2026-05-07 16:46 | 39.73675 | -4.47811 | 34915 ft | 434 kts | 192° |
| 2026-05-07 16:47 | 39.67628 | -4.48412 | 34890 ft | 433 kts | 193° |
| 2026-05-07 16:47 | 39.61617 | -4.49009 | 34899 ft | 432 kts | 193° |
| 2026-05-07 16:48 | 39.55648 | -4.49601 | 34882 ft | 430 kts | 194° |
| 2026-05-07 16:48 | 39.49670 | -4.50206 | 34873 ft | 429 kts | 194° |
| 2026-05-07 16:49 | 39.43658 | -4.50796 | 34889 ft | 431 kts | 194° |
| 2026-05-07 16:49 | 39.37707 | -4.51381 | 34873 ft | 430 kts | 194° |
| 2026-05-07 16:50 | 39.31710 | -4.51964 | 34900 ft | 429 kts | 194° |
| 2026-05-07 16:50 | 39.25775 | -4.52547 | 34878 ft | 430 kts | 194° |
| 2026-05-07 16:51 | 39.19800 | -4.53131 | 34883 ft | 427 kts | 194° |
| 2026-05-07 16:51 | 39.13863 | -4.53714 | 34875 ft | 429 kts | 194° |
| 2026-05-07 16:52 | 39.07919 | -4.54296 | 34881 ft | 429 kts | 194° |
| 2026-05-07 16:52 | 39.01962 | -4.54874 | 34875 ft | 425 kts | 194° |
| 2026-05-07 16:53 | 38.96063 | -4.55451 | 34869 ft | 426 kts | 194° |
| 2026-05-07 16:53 | 38.90171 | -4.56355 | 34875 ft | 421 kts | 200° |
| 2026-05-07 16:54 | 38.84521 | -4.57555 | 34863 ft | 417 kts | 200° |
| 2026-05-07 16:54 | 38.78625 | -4.58792 | 34864 ft | 422 kts | 199° |
| 2026-05-07 16:55 | 38.72695 | -4.60027 | 34868 ft | 427 kts | 199° |
| 2026-05-07 16:55 | 38.66840 | -4.61241 | 34880 ft | 427 kts | 199° |
| 2026-05-07 16:56 | 38.60975 | -4.62455 | 34862 ft | 424 kts | 199° |
| 2026-05-07 16:56 | 38.52195 | -4.64271 | 34869 ft | 424 kts | 199° |
| 2026-05-07 16:57 | 38.46355 | -4.65482 | 34854 ft | 422 kts | 199° |
| 2026-05-07 16:57 | 38.40474 | -4.66715 | 34871 ft | 424 kts | 199° |
| 2026-05-07 16:58 | 38.34551 | -4.67936 | 34876 ft | 423 kts | 199° |
| 2026-05-07 16:58 | 38.28639 | -4.69148 | 34858 ft | 422 kts | 199° |
| 2026-05-07 16:59 | 38.25684 | -4.69756 | 34534 ft | 424 kts | 199° |
| 2026-05-07 16:59 | 38.22784 | -4.70345 | 34125 ft | 416 kts | 199° |
| 2026-05-07 16:59 | 38.19987 | -4.70913 | 33825 ft | 404 kts | 199° |
| 2026-05-07 16:59 | 38.17244 | -4.71470 | 33547 ft | 392 kts | 199° |
| 2026-05-07 17:00 | 38.14565 | -4.72017 | 33277 ft | 381 kts | 200° |
| 2026-05-07 17:00 | 38.11978 | -4.72551 | 33040 ft | 383 kts | 200° |
| 2026-05-07 17:00 | 38.09266 | -4.73123 | 32825 ft | 399 kts | 199° |
| 2026-05-07 17:00 | 38.06473 | -4.73701 | 32631 ft | 409 kts | 199° |
| 2026-05-07 17:01 | 38.03707 | -4.74254 | 32527 ft | 395 kts | 199° |
| 2026-05-07 17:01 | 38.01050 | -4.74785 | 32476 ft | 388 kts | 199° |
| 2026-05-07 17:01 | 37.98269 | -4.75364 | 32220 ft | 406 kts | 199° |
| 2026-05-07 17:01 | 37.95385 | -4.75966 | 31558 ft | 427 kts | 198° |
| 2026-05-07 17:02 | 37.92374 | -4.76575 | 30724 ft | 430 kts | 197° |
| 2026-05-07 17:02 | 37.89421 | -4.77165 | 29909 ft | 431 kts | 197° |
| 2026-05-07 17:02 | 37.86420 | -4.77766 | 29094 ft | 431 kts | 196° |
| 2026-05-07 17:02 | 37.83395 | -4.78376 | 28260 ft | 431 kts | 195° |
| 2026-05-07 17:03 | 37.80437 | -4.78974 | 27459 ft | 431 kts | 195° |
| 2026-05-07 17:03 | 37.77549 | -4.79884 | 26857 ft | 426 kts | 209° |
| 2026-05-07 17:03 | 37.75074 | -4.81834 | 26323 ft | 416 kts | 228° |
| 2026-05-07 17:03 | 37.73266 | -4.84548 | 25708 ft | 400 kts | 240° |
| 2026-05-07 17:04 | 37.71702 | -4.87411 | 25128 ft | 393 kts | 240° |
| 2026-05-07 17:04 | 37.70151 | -4.90203 | 24582 ft | 385 kts | 239° |
| 2026-05-07 17:04 | 37.68602 | -4.92945 | 24066 ft | 379 kts | 239° |
| 2026-05-07 17:04 | 37.67039 | -4.95699 | 23557 ft | 397 kts | 239° |
| 2026-05-07 17:05 | 37.65436 | -4.98505 | 23041 ft | 393 kts | 238° |
| 2026-05-07 17:05 | 37.63871 | -5.01228 | 22850 ft | 376 kts | 238° |
| 2026-05-07 17:05 | 37.62096 | -5.03529 | 22808 ft | 364 kts | 218° |
| 2026-05-07 17:05 | 37.59943 | -5.05112 | 22821 ft | 348 kts | 214° |
| 2026-05-07 17:06 | 37.57841 | -5.06560 | 22792 ft | 350 kts | 213° |
| 2026-05-07 17:06 | 37.55667 | -5.08075 | 22811 ft | 352 kts | 214° |
| 2026-05-07 17:06 | 37.53529 | -5.09571 | 22839 ft | 351 kts | 214° |
| 2026-05-07 17:06 | 37.51325 | -5.10896 | 22819 ft | 359 kts | 200° |
| 2026-05-07 17:07 | 37.48792 | -5.11304 | 22400 ft | 371 kts | 182° |
| 2026-05-07 17:07 | 37.46255 | -5.10752 | 21887 ft | 373 kts | 159° |
| 2026-05-07 17:07 | 37.44035 | -5.08974 | 21416 ft | 374 kts | 143° |
| 2026-05-07 17:07 | 37.41850 | -5.06914 | 20941 ft | 399 kts | 146° |
| 2026-05-07 17:08 | 37.39505 | -5.04968 | 20460 ft | 393 kts | 150° |
| 2026-05-07 17:08 | 37.37183 | -5.03192 | 19973 ft | 386 kts | 151° |
| 2026-05-07 17:08 | 37.34889 | -5.01499 | 19487 ft | 379 kts | 151° |
| 2026-05-07 17:08 | 37.32603 | -4.99838 | 19008 ft | 372 kts | 152° |
| 2026-05-07 17:09 | 37.30375 | -4.98232 | 18535 ft | 366 kts | 152° |
| 2026-05-07 17:09 | 37.28193 | -4.96663 | 18059 ft | 360 kts | 152° |
| 2026-05-07 17:09 | 37.25959 | -4.95223 | 17514 ft | 356 kts | 158° |
| 2026-05-07 17:09 | 37.23703 | -4.93973 | 16915 ft | 354 kts | 158° |
| 2026-05-07 17:10 | 37.21467 | -4.92709 | 16303 ft | 353 kts | 157° |
| 2026-05-07 17:10 | 37.19247 | -4.91433 | 15650 ft | 353 kts | 156° |
| 2026-05-07 17:10 | 37.17030 | -4.90147 | 15025 ft | 352 kts | 156° |
| 2026-05-07 17:10 | 37.14819 | -4.88861 | 14465 ft | 348 kts | 156° |
| 2026-05-07 17:11 | 37.12634 | -4.87586 | 13917 ft | 343 kts | 156° |
| 2026-05-07 17:11 | 37.10493 | -4.86337 | 13370 ft | 339 kts | 156° |
| 2026-05-07 17:11 | 37.08360 | -4.85093 | 12825 ft | 334 kts | 156° |
| 2026-05-07 17:11 | 37.06260 | -4.83868 | 12280 ft | 329 kts | 156° |
| 2026-05-07 17:12 | 37.04202 | -4.82669 | 11708 ft | 326 kts | 155° |
| 2026-05-07 17:12 | 37.02139 | -4.81467 | 11192 ft | 320 kts | 156° |
| 2026-05-07 17:12 | 37.00124 | -4.80359 | 10737 ft | 312 kts | 164° |
| 2026-05-07 17:12 | 36.97996 | -4.80185 | 10295 ft | 302 kts | 189° |
| 2026-05-07 17:13 | 36.95953 | -4.80604 | 9893 ft | 294 kts | 190° |
| 2026-05-07 17:13 | 36.93977 | -4.81038 | 9709 ft | 280 kts | 190° |
| 2026-05-07 17:13 | 36.92106 | -4.81450 | 9411 ft | 273 kts | 190° |
| 2026-05-07 17:13 | 36.90218 | -4.81575 | 8979 ft | 271 kts | 167° |
| 2026-05-07 17:14 | 36.88493 | -4.80657 | 8534 ft | 270 kts | 142° |
| 2026-05-07 17:14 | 36.87198 | -4.79004 | 8137 ft | 270 kts | 128° |
| 2026-05-07 17:14 | 36.86135 | -4.77073 | 7715 ft | 269 kts | 124° |
| 2026-05-07 17:14 | 36.85125 | -4.75135 | 7300 ft | 268 kts | 125° |
| 2026-05-07 17:15 | 36.84044 | -4.73235 | 6774 ft | 271 kts | 128° |
| 2026-05-07 17:15 | 36.82839 | -4.71358 | 6029 ft | 282 kts | 131° |
| 2026-05-07 17:15 | 36.81538 | -4.69506 | 5284 ft | 290 kts | 132° |
| 2026-05-07 17:15 | 36.80163 | -4.67614 | 4536 ft | 295 kts | 131° |
| 2026-05-07 17:16 | 36.78786 | -4.65721 | 3662 ft | 305 kts | 131° |
| 2026-05-07 17:16 | 36.77363 | -4.63737 | 2727 ft | 305 kts | 130° |
| 2026-05-07 17:16 | 36.76022 | -4.61839 | 2318 ft | 274 kts | 130° |
| 2026-05-07 17:16 | 36.74826 | -4.60160 | 2031 ft | 248 kts | 130° |
| 2026-05-07 17:17 | 36.73726 | -4.58617 | 1709 ft | 230 kts | 130° |
| 2026-05-07 17:17 | 36.72701 | -4.57178 | 1388 ft | 212 kts | 130° |
| 2026-05-07 17:17 | 36.71755 | -4.55857 | 1099 ft | 195 kts | 130° |
| 2026-05-07 17:17 | 36.70885 | -4.54639 | 840 ft | 178 kts | 131° |
| 2026-05-07 17:18 | 36.70109 | -4.53558 | 648 ft | 158 kts | 131° |
| 2026-05-07 17:18 | 36.69396 | -4.52597 | 387 ft | 144 kts | 131° |
| 2026-05-07 17:18 | 36.68761 | -4.51700 | 166 ft | 130 kts | 130° |
| 2026-05-07 17:18 | 36.68185 | -4.50889 | 50 ft | 119 kts | 131° |
| 2026-05-07 17:19 | 36.67720 | -4.50233 | 49 ft | 84 kts | 131° |
| 2026-05-07 17:19 | 36.67396 | -4.49784 | 42 ft | 50 kts | 126° |
| 2026-05-07 17:19 | 36.67290 | -4.49484 | 39 ft | 18 kts | 103° |
| 2026-05-07 17:19 | 36.67265 | -4.49333 | 39 ft | 17 kts | 98° |
| 2026-05-07 17:20 | 36.67297 | -4.49204 | 38 ft | 12 kts | 93° |
| 2026-05-07 17:20 | 36.67307 | -4.49144 | 38 ft | 1 kts | 67° |
| 2026-05-07 17:20 | 36.67309 | -4.49137 | 38 ft | 1 kts | 67° |
| 2026-05-07 17:20 | 36.67310 | -4.49134 | 38 ft | 0 kts | 68° |